createdAt,value
2018-06-09T00:03:01.197Z,21.70
2018-06-09T00:07:05.052Z,21.60
2018-06-09T00:11:08.707Z,21.60
2018-06-09T00:15:12.341Z,21.50
2018-06-09T00:19:15.997Z,21.50
2018-06-09T00:23:19.676Z,21.50
2018-06-09T00:31:26.667Z,21.40
2018-06-09T00:35:30.277Z,21.30
2018-06-09T00:39:33.939Z,21.20
2018-06-09T00:43:37.598Z,21.20
2018-06-09T00:47:41.272Z,21.10
2018-06-09T00:51:44.891Z,21.10
2018-06-09T00:55:48.568Z,21.00
2018-06-09T00:59:52.244Z,21.00
2018-06-09T01:03:55.907Z,20.90
2018-06-09T01:07:59.615Z,20.90
2018-06-09T01:12:03.245Z,20.90
2018-06-09T01:16:06.900Z,20.80
2018-06-09T01:20:10.629Z,20.70
2018-06-09T01:24:14.299Z,20.70
2018-06-09T01:28:17.922Z,20.70
2018-06-09T01:32:21.589Z,20.70
2018-06-09T01:36:25.283Z,20.70
2018-06-09T01:40:28.987Z,20.70
2018-06-09T01:44:32.637Z,20.70
2018-06-09T01:48:36.271Z,20.60
2018-06-09T01:52:39.960Z,20.60
2018-06-09T01:56:43.601Z,20.60
2018-06-09T02:00:47.251Z,20.50
2018-06-09T02:04:50.920Z,20.50
2018-06-09T02:08:54.587Z,20.50
2018-06-09T02:12:58.256Z,20.50
2018-06-09T02:17:01.917Z,20.40
2018-06-09T02:21:05.672Z,20.40
2018-06-09T02:25:09.288Z,20.30
2018-06-09T02:29:12.939Z,20.40
2018-06-09T02:33:16.583Z,20.40
2018-06-09T02:37:20.324Z,20.40
2018-06-09T02:41:23.975Z,20.30
2018-06-09T02:45:27.607Z,20.30
2018-06-09T02:49:31.321Z,20.30
2018-06-09T02:53:35.022Z,20.30
2018-06-09T02:57:38.698Z,20.20
2018-06-09T03:01:42.463Z,20.20
2018-06-09T03:05:46.082Z,20.20
2018-06-09T03:09:49.778Z,20.20
2018-06-09T03:13:53.447Z,20.10
2018-06-09T03:17:57.089Z,20.10
2018-06-09T03:22:00.709Z,20.20
2018-06-09T03:26:04.363Z,20.10
2018-06-09T03:30:08.110Z,20.10
2018-06-09T03:34:11.775Z,20.10
2018-06-09T03:38:15.416Z,20.10
2018-06-09T03:42:19.047Z,20.10
2018-06-09T03:46:22.716Z,20.10
2018-06-09T03:50:26.371Z,20.10
2018-06-09T03:54:30.027Z,20.10
2018-06-09T03:58:33.678Z,20.00
2018-06-09T04:02:37.313Z,20.00
2018-06-09T04:06:41.006Z,20.00
2018-06-09T04:10:44.680Z,19.90
2018-06-09T04:14:48.388Z,19.90
2018-06-09T04:18:54.805Z,19.90
2018-06-09T04:22:58.448Z,19.90
2018-06-09T04:27:02.132Z,19.90
2018-06-09T04:31:05.801Z,19.90
2018-06-09T04:35:09.479Z,19.90
2018-06-09T04:39:13.093Z,19.90
2018-06-09T04:43:16.745Z,19.90
2018-06-09T04:47:20.419Z,19.90
2018-06-09T04:51:24.157Z,19.90
2018-06-09T04:55:27.799Z,19.90
2018-06-09T04:59:31.588Z,19.90
2018-06-09T05:03:35.200Z,20.00
2018-06-09T05:07:38.885Z,20.00
2018-06-09T05:11:42.559Z,20.10
2018-06-09T05:15:46.212Z,20.10
2018-06-09T05:19:49.861Z,20.10
2018-06-09T05:23:53.495Z,20.20
2018-06-09T05:27:57.196Z,20.30
2018-06-09T05:32:00.839Z,20.30
2018-06-09T05:36:04.543Z,20.30
2018-06-09T05:40:08.208Z,20.40
2018-06-09T05:44:11.838Z,20.40
2018-06-09T05:48:15.492Z,20.50
2018-06-09T05:52:19.150Z,20.60
2018-06-09T05:56:22.854Z,20.60
2018-06-09T06:00:26.502Z,20.60
2018-06-09T06:04:30.127Z,20.70
2018-06-09T06:08:33.815Z,20.80
2018-06-09T06:12:37.480Z,20.90
2018-06-09T06:16:41.144Z,21.00
2018-06-09T06:20:44.815Z,21.00
2018-06-09T06:24:48.443Z,21.10
2018-06-09T06:28:52.103Z,21.20
2018-06-09T06:32:55.771Z,21.20
2018-06-09T06:36:59.488Z,21.30
2018-06-09T06:41:03.220Z,21.30
2018-06-09T06:45:06.978Z,21.40
2018-06-09T06:49:10.543Z,21.40
2018-06-09T06:53:14.196Z,21.50
2018-06-09T06:57:17.836Z,21.50
2018-06-09T07:01:21.479Z,21.60
2018-06-09T07:05:25.164Z,21.60
2018-06-09T07:09:28.865Z,21.80
2018-06-09T07:13:32.553Z,22.00
2018-06-09T07:17:36.199Z,22.30
2018-06-09T07:21:39.912Z,22.80
2018-06-09T07:25:43.531Z,23.20
2018-06-09T07:29:47.219Z,23.60
2018-06-09T07:33:50.851Z,24.10
2018-06-09T07:37:54.508Z,24.10
2018-06-09T07:41:58.189Z,24.10
2018-06-09T07:46:01.817Z,24.10
2018-06-09T07:50:05.544Z,24.10
2018-06-09T07:54:09.669Z,24.00
2018-06-09T07:58:13.411Z,23.90
2018-06-09T08:02:17.069Z,23.80
2018-06-09T08:06:20.745Z,23.80
2018-06-09T08:10:24.413Z,23.70
2018-06-09T08:14:28.119Z,23.80
2018-06-09T08:18:31.777Z,23.80
2018-06-09T08:22:35.423Z,23.80
2018-06-09T08:26:39.078Z,23.90
2018-06-09T08:30:42.807Z,23.90
2018-06-09T08:34:46.454Z,24.00
2018-06-09T08:38:50.124Z,24.20
2018-06-09T08:42:53.926Z,24.50
2018-06-09T08:46:57.602Z,25.00
2018-06-09T08:51:01.244Z,25.70
2018-06-09T08:55:04.937Z,26.30
2018-06-09T08:59:08.596Z,26.80
2018-06-09T09:03:12.283Z,27.30
2018-06-09T09:07:15.977Z,27.60
2018-06-09T09:11:19.669Z,27.70
2018-06-09T09:15:23.329Z,27.90
2018-06-09T09:19:26.996Z,28.10
2018-06-09T09:23:30.643Z,28.20
2018-06-09T09:27:34.287Z,28.30
2018-06-09T09:35:41.321Z,28.30
2018-06-09T09:39:46.228Z,28.30
2018-06-09T09:43:49.881Z,28.20
2018-06-09T09:47:53.580Z,28.10
2018-06-09T09:51:57.248Z,28.10
2018-06-09T09:56:00.918Z,28.00
2018-06-09T10:00:04.655Z,28.00
2018-06-09T10:04:08.326Z,28.00
2018-06-09T10:08:12.034Z,28.00
2018-06-09T10:12:15.688Z,28.00
2018-06-09T10:16:19.357Z,28.00
2018-06-09T10:20:23.035Z,28.00
2018-06-09T10:24:26.740Z,28.00
2018-06-09T10:28:30.374Z,28.00
2018-06-09T10:32:34.049Z,28.10
2018-06-09T10:36:37.701Z,28.10
2018-06-09T10:40:41.363Z,28.10
2018-06-09T10:44:45.047Z,28.10
2018-06-09T10:48:48.783Z,28.20
2018-06-09T10:52:52.500Z,28.20
2018-06-09T10:56:56.222Z,28.30
2018-06-09T11:00:59.904Z,28.30
2018-06-09T11:05:03.567Z,28.30
2018-06-09T11:09:07.818Z,28.30
2018-06-09T11:13:11.468Z,28.30
2018-06-09T11:17:15.252Z,28.30
2018-06-09T11:21:18.923Z,28.40
2018-06-09T11:25:22.574Z,28.50
2018-06-09T11:29:26.223Z,28.50
2018-06-09T11:33:29.876Z,28.60
2018-06-09T11:37:33.531Z,28.70
2018-06-09T11:41:37.511Z,28.90
2018-06-09T11:45:41.168Z,29.10
2018-06-09T11:49:44.790Z,29.20
2018-06-09T11:53:48.438Z,29.30
2018-06-09T11:57:52.080Z,29.40
2018-06-09T12:01:55.748Z,29.50
2018-06-09T12:05:59.407Z,29.70
2018-06-09T12:10:03.077Z,29.80
2018-06-09T12:14:06.744Z,30.00
2018-06-09T12:18:10.458Z,30.20
2018-06-09T12:26:17.480Z,30.50
2018-06-09T12:30:21.107Z,30.60
2018-06-09T12:34:24.799Z,30.80
2018-06-09T12:38:28.454Z,30.90
2018-06-09T12:42:32.083Z,31.10
2018-06-09T12:50:30.111Z,31.40
2018-06-09T12:54:33.759Z,31.60
2018-06-09T12:58:37.403Z,31.70
2018-06-09T13:02:41.091Z,31.90
2018-06-09T13:06:44.775Z,32.10
2018-06-09T13:14:38.430Z,30.60
2018-06-09T13:18:42.058Z,32.40
2018-06-09T13:22:45.722Z,32.50
2018-06-09T13:26:49.353Z,32.60
2018-06-09T13:30:53.023Z,32.70
2018-06-09T13:34:56.679Z,32.80
2018-06-09T13:39:00.335Z,32.80
2018-06-09T13:43:04.206Z,32.90
2018-06-09T13:47:07.865Z,33.00
2018-06-09T13:51:11.499Z,33.10
2018-06-09T13:55:15.123Z,33.30
2018-06-09T13:59:18.751Z,33.30
2018-06-09T14:03:22.403Z,33.40
2018-06-09T14:07:26.100Z,33.50
2018-06-09T14:11:29.734Z,33.60
2018-06-09T14:15:33.411Z,33.60
2018-06-09T14:19:37.131Z,33.60
2018-06-09T14:23:40.782Z,33.70
2018-06-09T14:27:44.455Z,33.80
2018-06-09T14:35:51.555Z,32.90
2018-06-09T14:39:55.200Z,33.90
2018-06-09T14:43:58.840Z,33.90
2018-06-09T14:48:02.482Z,34.00
2018-06-09T14:52:06.208Z,34.10
2018-06-09T14:56:10.346Z,34.10
2018-06-09T15:00:14.017Z,34.10
2018-06-09T15:12:18.466Z,34.10
2018-06-09T15:16:22.159Z,34.10
2018-06-09T15:20:25.815Z,34.20
2018-06-09T15:24:29.520Z,34.10
2018-06-09T15:28:33.181Z,34.10
2018-06-09T15:32:36.805Z,34.00
2018-06-09T15:36:40.597Z,34.00
2018-06-09T15:40:44.240Z,33.90
2018-06-09T15:44:47.882Z,33.90
2018-06-09T15:48:51.535Z,33.90
2018-06-09T15:52:55.167Z,33.80
2018-06-09T15:56:58.816Z,33.80
2018-06-09T16:01:02.466Z,33.80
2018-06-09T16:05:06.170Z,33.80
2018-06-09T16:09:10.021Z,33.70
2018-06-09T16:13:13.526Z,33.80
2018-06-09T16:17:17.183Z,33.70
2018-06-09T16:21:20.836Z,33.60
2018-06-09T16:25:24.509Z,33.60
2018-06-09T16:29:28.168Z,33.60
2018-06-09T16:33:31.786Z,33.60
2018-06-09T16:37:35.467Z,33.60
2018-06-09T16:41:39.122Z,33.60
2018-06-09T16:45:42.813Z,33.60
2018-06-09T16:49:46.476Z,33.60
2018-06-09T16:53:50.079Z,33.50
2018-06-09T16:57:53.748Z,33.50
2018-06-09T17:01:57.399Z,33.50
2018-06-09T17:06:01.062Z,33.50
2018-06-09T17:10:04.823Z,33.50
2018-06-09T17:14:08.524Z,33.50
2018-06-09T17:18:12.158Z,33.50
2018-06-09T17:22:15.788Z,33.50
2018-06-09T17:26:19.447Z,33.50
2018-06-09T17:30:23.058Z,33.50
2018-06-09T17:34:26.726Z,33.50
2018-06-09T17:38:30.383Z,33.50
2018-06-09T17:42:34.070Z,33.40
2018-06-09T17:46:37.724Z,33.40
2018-06-09T17:50:41.368Z,33.40
2018-06-09T17:54:45.097Z,33.40
2018-06-09T17:58:48.763Z,33.40
2018-06-09T18:02:52.408Z,33.40
2018-06-09T18:10:59.470Z,33.30
2018-06-09T18:15:03.272Z,33.20
2018-06-09T18:19:09.617Z,33.10
2018-06-09T18:23:13.261Z,32.80
2018-06-09T18:27:16.901Z,32.40
2018-06-09T18:31:20.581Z,32.20
2018-06-09T18:35:24.251Z,31.90
2018-06-09T18:39:27.940Z,31.60
2018-06-09T18:43:31.614Z,31.20
2018-06-09T18:47:35.266Z,30.80
2018-06-09T18:51:38.943Z,30.60
2018-06-09T18:55:42.601Z,30.30
2018-06-09T18:59:46.258Z,30.10
2018-06-09T19:03:50.005Z,29.90
2018-06-09T19:07:53.705Z,29.70
2018-06-09T19:11:57.323Z,29.50
2018-06-09T19:16:00.987Z,29.30
2018-06-09T19:20:04.708Z,29.00
2018-06-09T19:24:08.409Z,28.90
2018-06-09T19:28:12.149Z,28.70
2018-06-09T19:32:15.773Z,28.60
2018-06-09T19:36:19.417Z,28.50
2018-06-09T19:40:23.085Z,28.40
2018-06-09T19:44:26.737Z,28.30
2018-06-09T19:48:30.379Z,28.30
2018-06-09T19:56:36.164Z,26.90
2018-06-09T20:00:39.941Z,28.10
2018-06-09T20:04:43.612Z,28.10
2018-06-09T20:08:47.361Z,28.00
2018-06-09T20:12:50.992Z,27.90
2018-06-09T20:16:54.636Z,27.80
2018-06-09T20:20:58.274Z,27.80
2018-06-09T20:25:01.950Z,27.70
2018-06-09T20:29:05.611Z,27.60
2018-06-09T20:33:09.281Z,27.40
2018-06-09T20:37:12.996Z,27.30
2018-06-09T20:41:16.684Z,27.20
2018-06-09T20:45:20.340Z,27.10
2018-06-09T20:49:24.106Z,26.90
2018-06-09T20:53:27.756Z,26.80
2018-06-09T20:57:31.409Z,26.70
2018-06-09T21:01:35.072Z,26.60
2018-06-09T21:05:38.780Z,26.50
2018-06-09T21:09:42.480Z,26.40
2018-06-09T21:13:46.113Z,26.30
2018-06-09T21:17:49.816Z,26.20
2018-06-09T21:21:53.451Z,26.00
2018-06-09T21:25:57.107Z,25.90
2018-06-09T21:30:05.011Z,25.80
2018-06-09T21:34:25.202Z,25.70
2018-06-09T21:38:33.037Z,25.60
2018-06-09T21:42:40.893Z,25.60
2018-06-09T21:46:47.767Z,25.50
2018-06-09T21:54:45.001Z,25.40
2018-06-09T21:58:48.654Z,25.40
2018-06-09T22:02:52.315Z,25.40
2018-06-09T22:06:56.011Z,25.30
2018-06-09T22:10:59.736Z,25.30
2018-06-09T22:15:03.409Z,25.20
2018-06-09T22:19:07.129Z,25.20
2018-06-09T22:23:10.779Z,25.20
2018-06-09T22:27:14.461Z,25.10
2018-06-09T22:31:18.121Z,25.10
2018-06-09T22:35:21.792Z,25.00
2018-06-09T22:39:25.453Z,25.00
2018-06-09T22:43:29.215Z,24.90
2018-06-09T22:47:32.856Z,24.90
2018-06-09T22:51:36.480Z,24.90
2018-06-09T22:55:40.145Z,24.90
2018-06-09T22:59:43.798Z,24.80
2018-06-09T23:03:47.448Z,24.80
2018-06-09T23:07:51.131Z,24.80
2018-06-09T23:11:54.749Z,24.70
2018-06-09T23:15:58.409Z,24.70
2018-06-09T23:20:02.068Z,24.60
2018-06-09T23:24:05.784Z,24.60
2018-06-09T23:28:09.442Z,24.50
2018-06-09T23:32:13.053Z,24.50
2018-06-09T23:36:16.701Z,24.40
2018-06-09T23:40:20.357Z,24.40
2018-06-09T23:44:24.039Z,24.30
2018-06-09T23:48:27.710Z,24.30
2018-06-09T23:52:31.342Z,24.20
2018-06-09T23:56:34.996Z,24.10
